createdAt,value
2022-12-04T00:01:34.335Z,35.08
2022-12-04T00:04:01.713Z,40.92
2022-12-04T00:06:37.077Z,39.35
2022-12-04T00:09:03.997Z,40.85
2022-12-04T00:11:32.567Z,40.60
2022-12-04T00:14:06.827Z,42.65
2022-12-04T00:16:34.255Z,36.95
2022-12-04T00:19:00.827Z,37.30
2022-12-04T00:21:27.645Z,40.83
2022-12-04T00:23:59.009Z,41.40
2022-12-04T00:26:27.618Z,40.35
2022-12-04T00:28:57.039Z,40.67
2022-12-04T00:31:26.640Z,37.63
2022-12-04T00:33:56.393Z,42.70
2022-12-04T00:36:24.944Z,44.00
2022-12-04T00:39:01.049Z,43.03
2022-12-04T00:41:42.242Z,39.70
2022-12-04T00:44:11.723Z,40.85
2022-12-04T00:46:38.216Z,43.28
2022-12-04T00:49:10.877Z,37.38
2022-12-04T00:51:40.070Z,41.55
2022-12-04T00:54:06.748Z,40.80
2022-12-04T00:56:35.888Z,40.75
2022-12-04T00:59:02.457Z,46.83
2022-12-04T01:01:30.646Z,45.25
2022-12-04T01:03:57.408Z,46.83
2022-12-04T01:06:31.649Z,40.22
2022-12-04T01:11:40.016Z,45.58
2022-12-04T01:14:06.546Z,40.78
2022-12-04T01:16:41.352Z,47.65
2022-12-04T01:19:10.914Z,44.05
2022-12-04T01:21:43.793Z,46.22
2022-12-04T01:24:10.593Z,45.72
2022-12-04T01:26:37.683Z,44.75
2022-12-04T01:29:04.436Z,46.58
2022-12-04T01:31:31.592Z,46.95
2022-12-04T01:33:58.971Z,46.00
2022-12-04T01:36:29.347Z,49.13
2022-12-04T01:38:56.827Z,52.08
2022-12-04T01:41:27.416Z,44.88
2022-12-04T01:44:26.824Z,51.90
2022-12-04T01:46:58.560Z,47.38
2022-12-04T01:49:36.476Z,48.03
2022-12-04T01:52:12.198Z,49.30
2022-12-04T01:54:44.187Z,42.95
2022-12-04T01:57:17.189Z,49.38
2022-12-04T01:59:57.473Z,47.28
2022-12-04T02:02:35.237Z,43.95
2022-12-04T02:05:05.107Z,49.95
2022-12-04T02:07:32.244Z,48.13
2022-12-04T02:10:03.785Z,47.75
2022-12-04T02:12:52.924Z,45.65
2022-12-04T02:15:31.624Z,51.45
2022-12-04T02:18:13.394Z,48.28
2022-12-04T02:21:08.152Z,47.15
2022-12-04T02:23:34.620Z,51.42
2022-12-04T02:26:13.050Z,46.35
2022-12-04T02:28:52.925Z,50.22
2022-12-04T02:31:26.669Z,51.40
2022-12-04T02:34:05.362Z,54.17
2022-12-04T02:36:42.224Z,54.85
2022-12-04T02:39:44.357Z,48.53
2022-12-04T02:42:33.751Z,56.55
2022-12-04T02:45:06.561Z,48.10
2022-12-04T02:47:39.122Z,49.97
2022-12-04T02:50:12.221Z,49.40
2022-12-04T02:52:46.679Z,50.85
2022-12-04T02:55:22.788Z,50.72
2022-12-04T02:57:55.896Z,45.75
2022-12-04T03:00:22.588Z,47.60
2022-12-04T03:03:03.821Z,49.97
2022-12-04T03:05:51.842Z,47.17
2022-12-04T03:08:30.171Z,44.50
2022-12-04T03:11:03.353Z,43.78
2022-12-04T03:13:47.529Z,44.42
2022-12-04T03:16:19.655Z,43.40
2022-12-04T03:19:01.974Z,47.40
2022-12-04T03:21:33.619Z,46.65
2022-12-04T03:24:12.962Z,43.88
2022-12-04T03:26:53.233Z,44.90
2022-12-04T03:29:23.607Z,47.10
2022-12-04T03:31:53.268Z,43.60
2022-12-04T03:34:28.962Z,47.17
2022-12-04T03:37:08.830Z,51.05
2022-12-04T03:39:44.033Z,48.40
2022-12-04T03:42:51.786Z,48.30
2022-12-04T03:45:26.786Z,37.35
2022-12-04T03:47:56.144Z,49.28
2022-12-04T03:50:32.344Z,42.38
2022-12-04T03:53:07.987Z,44.53
2022-12-04T03:55:49.098Z,42.03
2022-12-04T03:58:27.240Z,42.97
2022-12-04T04:00:56.990Z,39.60
2022-12-04T04:03:35.885Z,44.95
2022-12-04T04:06:08.123Z,41.53
2022-12-04T04:08:55.506Z,42.08
2022-12-04T04:11:44.635Z,46.10
2022-12-04T04:14:49.782Z,37.13
2022-12-04T04:17:40.511Z,44.05
2022-12-04T04:20:33.064Z,39.17
2022-12-04T04:23:21.643Z,38.75
2022-12-04T04:25:48.594Z,41.22
2022-12-04T04:28:44.693Z,40.70
2022-12-04T04:31:29.836Z,44.95
2022-12-04T04:34:05.578Z,45.75
2022-12-04T04:36:46.368Z,39.85
2022-12-04T04:39:47.784Z,41.20
2022-12-04T04:42:26.681Z,45.38
2022-12-04T04:45:15.386Z,39.35
2022-12-04T04:47:54.508Z,41.42
2022-12-04T04:50:24.858Z,39.22
2022-12-04T04:53:01.019Z,48.25
2022-12-04T04:55:39.988Z,42.47
2022-12-04T04:58:15.408Z,43.05
2022-12-04T05:00:53.626Z,42.75
2022-12-04T05:03:22.581Z,44.17
2022-12-04T05:05:49.179Z,40.92
2022-12-04T05:08:15.763Z,41.78
2022-12-04T05:10:42.439Z,41.38
2022-12-04T05:13:11.713Z,42.75
2022-12-04T05:15:38.861Z,42.63
2022-12-04T05:18:07.144Z,39.00
2022-12-04T05:20:33.712Z,41.05
2022-12-04T05:23:00.263Z,41.67
2022-12-04T05:25:32.781Z,41.00
2022-12-04T05:27:59.324Z,39.35
2022-12-04T05:30:25.874Z,39.63
2022-12-04T05:32:52.736Z,41.15
2022-12-04T05:35:22.217Z,40.13
2022-12-04T05:37:48.781Z,31.52
2022-12-04T05:40:15.747Z,33.63
2022-12-04T05:42:51.203Z,38.03
2022-12-04T05:45:17.762Z,40.03
2022-12-04T05:47:44.764Z,38.75
2022-12-04T05:50:21.003Z,38.97
2022-12-04T05:52:47.481Z,41.55
2022-12-04T05:55:22.732Z,44.90
2022-12-04T05:57:49.293Z,33.70
2022-12-04T06:00:16.761Z,39.33
2022-12-04T06:02:43.317Z,41.28
2022-12-04T06:05:10.387Z,38.50
2022-12-04T06:07:37.198Z,39.58
2022-12-04T06:10:04.428Z,34.33
2022-12-04T06:12:31.017Z,46.20
2022-12-04T06:14:57.569Z,41.83
2022-12-04T06:17:27.349Z,41.35
2022-12-04T06:20:07.895Z,38.95
2022-12-04T06:22:38.474Z,40.38
2022-12-04T06:25:05.404Z,40.28
2022-12-04T06:27:31.902Z,43.17
2022-12-04T06:29:58.993Z,38.67
2022-12-04T06:32:29.284Z,40.25
2022-12-04T06:34:55.880Z,41.55
2022-12-04T06:37:24.621Z,43.88
2022-12-04T06:39:51.515Z,42.00
2022-12-04T06:42:27.492Z,38.75
2022-12-04T06:44:54.017Z,36.50
2022-12-04T06:47:26.608Z,43.30
2022-12-04T06:49:53.361Z,42.63
2022-12-04T06:52:20.079Z,41.35
2022-12-04T06:54:57.130Z,43.22
2022-12-04T06:57:26.595Z,40.00
2022-12-04T06:59:53.264Z,41.75
2022-12-04T07:02:25.839Z,44.80
2022-12-04T07:04:58.844Z,44.22
2022-12-04T07:07:28.505Z,37.92
2022-12-04T07:09:55.304Z,44.13
2022-12-04T07:12:24.364Z,45.35
2022-12-04T07:14:50.829Z,46.15
2022-12-04T07:17:17.961Z,48.95
2022-12-04T07:19:44.560Z,41.88
2022-12-04T07:22:11.073Z,38.13
2022-12-04T07:24:42.102Z,43.20
2022-12-04T07:27:16.609Z,43.88
2022-12-04T07:29:43.610Z,43.65
2022-12-04T07:32:10.341Z,42.67
2022-12-04T07:34:36.895Z,39.88
2022-12-04T07:37:03.423Z,46.78
2022-12-04T07:39:30.080Z,44.70
2022-12-04T07:41:57.045Z,40.53
2022-12-04T07:44:34.165Z,43.38
2022-12-04T07:47:00.726Z,45.95
2022-12-04T07:49:27.246Z,46.78
2022-12-04T07:51:53.853Z,40.72
2022-12-04T07:54:20.378Z,42.38
2022-12-04T07:56:46.934Z,41.58
2022-12-04T07:59:22.027Z,41.22
2022-12-04T08:01:48.695Z,44.88
2022-12-04T08:04:18.218Z,39.83
2022-12-04T08:06:44.817Z,42.17
2022-12-04T08:09:11.348Z,42.28
2022-12-04T08:11:38.569Z,41.72
2022-12-04T08:14:06.478Z,40.25
2022-12-04T08:16:42.100Z,40.60
2022-12-04T08:19:08.688Z,40.88
2022-12-04T08:21:35.264Z,45.92
2022-12-04T08:24:07.593Z,42.53
2022-12-04T08:26:34.178Z,42.15
2022-12-04T08:29:01.740Z,39.25
2022-12-04T08:31:33.263Z,45.33
2022-12-04T08:34:02.698Z,37.38
2022-12-04T08:36:29.508Z,46.63
2022-12-04T08:38:59.447Z,39.95
2022-12-04T08:41:27.160Z,39.63
2022-12-04T08:43:55.295Z,42.28
2022-12-04T08:46:26.195Z,39.38
2022-12-04T08:48:56.521Z,41.13
2022-12-04T08:51:25.870Z,41.55
2022-12-04T08:53:54.731Z,42.25
2022-12-04T08:56:28.871Z,42.28
2022-12-04T08:58:56.646Z,39.58
2022-12-04T09:01:23.583Z,40.05
2022-12-04T09:03:50.111Z,33.80
2022-12-04T09:06:17.148Z,37.80
2022-12-04T09:08:43.874Z,34.30
2022-12-04T09:11:19.442Z,29.55
2022-12-04T09:13:48.378Z,39.88
2022-12-04T09:16:18.535Z,34.92
2022-12-04T09:18:47.467Z,39.55
2022-12-04T09:21:16.159Z,42.38
2022-12-04T09:23:51.813Z,40.88
2022-12-04T09:26:38.688Z,40.47
2022-12-04T09:29:06.243Z,37.33
2022-12-04T09:31:33.619Z,37.45
2022-12-04T09:34:04.449Z,38.17
2022-12-04T09:36:31.006Z,39.35
2022-12-04T09:38:58.410Z,45.50
2022-12-04T09:41:48.262Z,40.28
2022-12-04T09:44:29.150Z,39.40
2022-12-04T09:47:24.196Z,39.80
2022-12-04T09:50:29.298Z,43.13
2022-12-04T09:53:01.100Z,42.75
2022-12-04T09:55:42.516Z,48.38
2022-12-04T09:58:15.547Z,45.72
2022-12-04T10:00:47.200Z,42.72
2022-12-04T10:03:16.477Z,47.30
2022-12-04T10:06:04.735Z,36.80
2022-12-04T10:08:40.807Z,37.35
2022-12-04T10:11:32.962Z,45.33
2022-12-04T10:14:11.397Z,33.45
2022-12-04T10:17:02.439Z,41.80
2022-12-04T10:20:01.272Z,47.45
2022-12-04T10:23:14.257Z,40.50
2022-12-04T10:25:42.089Z,35.63
2022-12-04T10:28:16.503Z,44.10
2022-12-04T10:30:45.591Z,46.10
2022-12-04T10:33:31.021Z,39.75
2022-12-04T10:36:01.358Z,43.78
2022-12-04T10:38:45.572Z,40.90
2022-12-04T10:41:31.414Z,41.13
2022-12-04T10:43:58.475Z,37.80
2022-12-04T10:46:28.138Z,37.78
2022-12-04T10:49:28.477Z,36.85
2022-12-04T10:51:58.870Z,34.80
2022-12-04T10:54:32.855Z,34.65
2022-12-04T10:57:05.281Z,38.90
2022-12-04T10:59:35.707Z,36.13
2022-12-04T11:02:32.768Z,37.58
2022-12-04T11:05:02.772Z,36.85
2022-12-04T11:07:51.227Z,42.13
2022-12-04T11:10:56.257Z,36.65
2022-12-04T11:13:23.545Z,32.75
2022-12-04T11:15:54.326Z,31.95
2022-12-04T11:18:27.756Z,42.42
2022-12-04T11:21:07.628Z,36.60
2022-12-04T11:23:48.805Z,33.97
2022-12-04T11:26:18.450Z,32.95
2022-12-04T11:28:53.319Z,35.80
2022-12-04T11:31:22.741Z,35.47
2022-12-04T11:34:05.353Z,35.20
2022-12-04T11:36:40.488Z,34.95
2022-12-04T11:39:13.819Z,33.03
2022-12-04T11:41:40.539Z,37.15
2022-12-04T11:44:20.207Z,33.20
2022-12-04T11:46:53.461Z,35.42
2022-12-04T11:49:22.202Z,32.65
2022-12-04T11:52:45.350Z,35.17
2022-12-04T11:55:28.759Z,32.83
2022-12-04T11:58:04.814Z,33.70
2022-12-04T12:00:50.581Z,35.65
2022-12-04T12:03:44.191Z,32.45
2022-12-04T12:06:25.294Z,31.45
2022-12-04T12:09:03.780Z,31.15
2022-12-04T12:11:40.196Z,38.70
2022-12-04T12:14:41.145Z,33.75
2022-12-04T12:17:39.584Z,31.92
2022-12-04T12:20:42.600Z,37.13
2022-12-04T12:23:19.186Z,33.53
2022-12-04T12:25:53.977Z,35.45
2022-12-04T12:28:43.393Z,35.58
2022-12-04T12:31:40.628Z,35.30
2022-12-04T12:34:19.807Z,41.80
2022-12-04T12:36:53.307Z,32.80
2022-12-04T12:39:28.132Z,36.58
2022-12-04T12:41:59.040Z,35.22
2022-12-04T12:44:34.650Z,36.60
2022-12-04T12:47:13.651Z,42.67
2022-12-04T12:49:49.655Z,40.78
2022-12-04T12:52:30.667Z,35.13
2022-12-04T12:55:05.627Z,35.33
2022-12-04T12:57:37.424Z,39.25
2022-12-04T13:00:15.606Z,36.80
2022-12-04T13:03:18.203Z,40.95
2022-12-04T13:05:51.977Z,33.53
2022-12-04T13:08:27.841Z,37.47
2022-12-04T13:11:21.046Z,35.22
2022-12-04T13:14:04.265Z,34.15
2022-12-04T13:16:45.736Z,37.08
2022-12-04T13:19:12.315Z,36.85
2022-12-04T13:22:15.618Z,39.72
2022-12-04T13:25:11.221Z,37.88
2022-12-04T13:27:54.462Z,38.10
2022-12-04T13:30:32.431Z,42.35
2022-12-04T13:33:26.807Z,41.63
2022-12-04T13:36:15.806Z,39.30
2022-12-04T13:39:03.331Z,38.00
2022-12-04T13:41:33.971Z,43.58
2022-12-04T13:44:05.611Z,42.35
2022-12-04T13:46:44.129Z,39.67
2022-12-04T13:49:31.728Z,39.10
2022-12-04T13:52:00.803Z,40.90
2022-12-04T13:54:31.568Z,40.90
2022-12-04T13:57:16.055Z,40.30
2022-12-04T13:59:43.654Z,46.40
2022-12-04T14:02:16.272Z,52.00
2022-12-04T14:04:53.966Z,42.15
2022-12-04T14:07:32.089Z,41.22
2022-12-04T14:10:04.963Z,43.42
2022-12-04T14:12:40.698Z,43.78
2022-12-04T14:15:29.322Z,40.88
2022-12-04T14:18:20.378Z,41.67
2022-12-04T14:21:01.980Z,44.17
2022-12-04T14:23:42.895Z,46.05
2022-12-04T14:26:37.434Z,46.58
2022-12-04T14:29:30.173Z,42.83
2022-12-04T14:32:06.215Z,46.35
2022-12-04T14:34:36.089Z,44.13
2022-12-04T14:37:04.606Z,46.42
2022-12-04T14:39:38.159Z,49.65
2022-12-04T14:42:06.971Z,44.75
2022-12-04T14:44:33.581Z,49.45
2022-12-04T14:47:36.741Z,43.88
2022-12-04T14:50:19.265Z,51.05
2022-12-04T14:52:53.336Z,47.42
2022-12-04T14:55:41.954Z,49.75
2022-12-04T14:58:34.482Z,45.85
2022-12-04T15:01:03.872Z,45.55
2022-12-04T15:03:38.673Z,50.08
2022-12-04T15:06:13.788Z,41.50
2022-12-04T15:08:53.239Z,47.70
2022-12-04T15:11:39.281Z,45.55
2022-12-04T15:14:16.373Z,40.33
2022-12-04T15:16:43.480Z,44.22
2022-12-04T15:19:18.093Z,48.03
2022-12-04T15:21:45.115Z,43.92
2022-12-04T15:24:23.376Z,44.53
2022-12-04T15:26:57.454Z,41.40
2022-12-04T15:29:29.273Z,47.85
2022-12-04T15:32:00.726Z,49.05
2022-12-04T15:34:43.965Z,40.92
2022-12-04T15:37:19.375Z,46.00
2022-12-04T15:39:46.301Z,43.38
2022-12-04T15:42:18.132Z,44.50
2022-12-04T15:44:55.303Z,48.90
2022-12-04T15:47:49.339Z,47.20
2022-12-04T15:50:18.980Z,46.13
2022-12-04T15:52:54.550Z,43.97
2022-12-04T15:55:23.682Z,49.10
2022-12-04T15:58:02.835Z,50.65
2022-12-04T16:00:36.699Z,50.03
2022-12-04T16:03:25.929Z,46.63
2022-12-04T16:06:15.240Z,40.15
2022-12-04T16:08:46.413Z,47.13
2022-12-04T16:11:21.700Z,52.53
2022-12-04T16:14:01.732Z,50.13
2022-12-04T16:16:29.143Z,50.20
2022-12-04T16:18:56.028Z,45.80
2022-12-04T16:21:31.317Z,49.13
2022-12-04T16:24:06.935Z,48.92
2022-12-04T16:26:33.944Z,52.47
2022-12-04T16:29:00.637Z,47.58
2022-12-04T16:31:30.007Z,55.67
2022-12-04T16:33:56.670Z,53.17
2022-12-04T16:36:23.197Z,52.67
2022-12-04T16:38:50.441Z,56.70
2022-12-04T16:41:19.595Z,46.22
2022-12-04T16:43:54.039Z,61.72
2022-12-04T16:46:23.227Z,49.95
2022-12-04T16:48:49.914Z,54.67
2022-12-04T16:51:19.658Z,54.88
2022-12-04T16:53:46.502Z,47.95
2022-12-04T16:56:13.469Z,50.25
2022-12-04T16:58:39.973Z,47.95
2022-12-04T17:01:20.126Z,52.08
2022-12-04T17:03:46.826Z,58.03
2022-12-04T17:06:14.257Z,53.85
2022-12-04T17:08:40.758Z,52.40
2022-12-04T17:11:09.185Z,54.53
2022-12-04T17:13:35.718Z,58.50
2022-12-04T17:16:02.301Z,52.92
2022-12-04T17:18:28.901Z,50.58
2022-12-04T17:20:55.501Z,48.30
2022-12-04T17:23:22.129Z,55.80
2022-12-04T17:25:48.662Z,48.08
2022-12-04T17:28:15.209Z,54.60
2022-12-04T17:30:45.000Z,49.97
2022-12-04T17:33:11.841Z,50.15
2022-12-04T17:35:42.359Z,52.00
2022-12-04T17:38:09.382Z,50.17
2022-12-04T17:41:56.704Z,52.90
2022-12-04T17:44:23.538Z,52.70
2022-12-04T17:46:50.228Z,41.50
2022-12-04T17:49:19.936Z,51.75
2022-12-04T17:51:46.604Z,43.88
2022-12-04T17:54:13.384Z,50.30
2022-12-04T17:56:44.569Z,48.47
2022-12-04T17:59:14.409Z,50.70
2022-12-04T18:01:41.061Z,47.47
2022-12-04T18:04:09.224Z,48.05
2022-12-04T18:06:41.966Z,50.30
2022-12-04T18:09:10.997Z,49.55
2022-12-04T18:11:39.437Z,42.45
2022-12-04T18:14:12.149Z,50.60
2022-12-04T18:16:45.193Z,48.92
2022-12-04T18:19:13.450Z,56.53
2022-12-04T18:21:40.633Z,52.50
2022-12-04T18:24:08.217Z,48.15
2022-12-04T18:26:41.053Z,47.67
2022-12-04T18:29:08.674Z,56.83
2022-12-04T18:31:35.403Z,50.55
2022-12-04T18:34:02.362Z,46.08
2022-12-04T18:36:30.926Z,50.85
2022-12-04T18:39:00.754Z,47.58
2022-12-04T18:41:28.972Z,45.55
2022-12-04T18:43:56.109Z,46.22
2022-12-04T18:46:22.883Z,50.00
2022-12-04T18:48:52.582Z,47.60
2022-12-04T18:51:27.081Z,52.97
2022-12-04T18:53:56.281Z,51.13
2022-12-04T18:56:23.667Z,50.72
2022-12-04T18:58:50.300Z,40.70
2022-12-04T19:01:19.039Z,48.28
2022-12-04T19:03:47.216Z,44.75
2022-12-04T19:06:14.282Z,48.65
2022-12-04T19:08:43.436Z,49.55
2022-12-04T19:11:13.283Z,55.85
2022-12-04T19:13:40.969Z,52.88
2022-12-04T19:16:12.801Z,54.47
2022-12-04T19:18:42.447Z,53.95
2022-12-04T19:21:12.520Z,50.88
2022-12-04T19:23:39.369Z,50.05
2022-12-04T19:26:09.131Z,49.58
2022-12-04T19:28:35.949Z,49.08
2022-12-04T19:31:02.813Z,48.08
2022-12-04T19:33:29.613Z,47.55
2022-12-04T19:36:04.948Z,49.65
2022-12-04T19:38:33.474Z,54.90
2022-12-04T19:41:12.075Z,54.53
2022-12-04T19:43:40.619Z,50.53
2022-12-04T19:46:11.535Z,56.45
2022-12-04T19:48:38.914Z,54.50
2022-12-04T19:51:11.301Z,56.45
2022-12-04T19:53:41.185Z,48.90
2022-12-04T19:56:14.819Z,50.35
2022-12-04T19:58:41.917Z,49.70
2022-12-04T20:01:11.961Z,53.47
2022-12-04T20:03:39.325Z,57.78
2022-12-04T20:06:09.201Z,53.08
2022-12-04T20:08:36.623Z,48.20
2022-12-04T20:11:08.718Z,46.80
2022-12-04T20:13:36.448Z,50.78
2022-12-04T20:18:30.772Z,48.10
2022-12-04T20:20:58.769Z,49.80
2022-12-04T20:23:25.680Z,48.83
2022-12-04T20:25:55.853Z,47.45
2022-12-04T20:28:22.868Z,48.08
2022-12-04T20:30:52.909Z,52.65
2022-12-04T20:33:31.186Z,44.83
2022-12-04T20:36:00.466Z,41.63
2022-12-04T20:38:27.228Z,49.63
2022-12-04T20:40:53.825Z,49.47
2022-12-04T20:43:20.647Z,47.33
2022-12-04T20:45:53.549Z,53.42
2022-12-04T20:48:20.235Z,48.88
2022-12-04T20:50:58.727Z,46.70
2022-12-04T20:53:25.364Z,48.63
2022-12-04T20:55:54.082Z,50.33
2022-12-04T20:58:20.858Z,56.90
2022-12-04T21:00:48.023Z,54.42
2022-12-04T21:03:15.433Z,52.17
2022-12-04T21:05:52.154Z,47.75
2022-12-04T21:08:38.727Z,44.15
2022-12-04T21:11:05.470Z,47.40
2022-12-04T21:13:50.776Z,48.92
2022-12-04T21:16:17.624Z,39.13
2022-12-04T21:18:44.306Z,47.15
2022-12-04T21:21:10.983Z,47.65
2022-12-04T21:23:37.677Z,49.90
2022-12-04T21:26:07.241Z,50.20
2022-12-04T21:28:33.937Z,52.47
2022-12-04T21:31:05.693Z,47.60
2022-12-04T21:33:36.802Z,51.15
2022-12-04T21:36:09.858Z,46.50
2022-12-04T21:38:38.740Z,50.90
2022-12-04T21:41:09.414Z,49.88
2022-12-04T21:43:37.297Z,57.00
2022-12-04T21:46:09.583Z,51.13
2022-12-04T21:48:37.210Z,48.80
2022-12-04T21:51:16.888Z,46.67
2022-12-04T21:53:55.189Z,53.15
2022-12-04T21:56:22.707Z,51.83
2022-12-04T21:58:49.760Z,51.42
2022-12-04T22:01:17.623Z,48.95
2022-12-04T22:03:44.293Z,50.92
2022-12-04T22:06:11.118Z,50.05
2022-12-04T22:08:39.994Z,51.60
2022-12-04T22:11:09.023Z,51.22
2022-12-04T22:13:36.863Z,51.08
2022-12-04T22:16:10.252Z,49.70
2022-12-04T22:18:37.339Z,50.03
2022-12-04T22:21:09.389Z,50.17
2022-12-04T22:23:36.696Z,49.85
2022-12-04T22:26:08.272Z,56.65
2022-12-04T22:28:35.660Z,52.53
2022-12-04T22:31:11.338Z,47.83
2022-12-04T22:33:38.424Z,52.80
2022-12-04T22:36:12.483Z,56.97
2022-12-04T22:39:05.986Z,52.10
2022-12-04T22:41:29.419Z,52.85
2022-12-04T22:43:56.051Z,56.15
2022-12-04T22:46:22.714Z,50.45
2022-12-04T22:48:49.529Z,53.92
2022-12-04T22:51:19.744Z,51.63
2022-12-04T22:53:49.118Z,56.20
2022-12-04T22:56:22.587Z,54.22
2022-12-04T22:58:49.965Z,53.58
2022-12-04T23:01:25.181Z,51.78
2022-12-04T23:03:52.852Z,53.10
2022-12-04T23:06:22.272Z,54.75
2022-12-04T23:08:49.584Z,46.78
2022-12-04T23:11:20.702Z,56.58
2022-12-04T23:14:01.628Z,55.03
2022-12-04T23:16:30.362Z,56.05
2022-12-04T23:18:58.093Z,51.08
2022-12-04T23:23:53.332Z,48.17
2022-12-04T23:26:23.188Z,51.00
2022-12-04T23:28:49.976Z,45.97
2022-12-04T23:31:17.024Z,42.33
2022-12-04T23:33:43.904Z,45.67
2022-12-04T23:36:12.223Z,50.72
2022-12-04T23:38:40.645Z,43.63
2022-12-04T23:41:22.385Z,47.28
2022-12-04T23:43:50.658Z,48.58
2022-12-04T23:46:27.497Z,52.78
2022-12-04T23:48:54.586Z,52.03
2022-12-04T23:51:21.414Z,48.22
2022-12-04T23:53:48.650Z,53.17
2022-12-04T23:56:24.041Z,49.92
2022-12-04T23:58:52.573Z,46.05
